»·PEaware :: N187WP KLAX-KSNA

N187WP :: KLAX-KSNA

FLIGHT INFORMATION

Flight Status: Arrived
Operator: Privately registered:
United States
More flights under this callsign
Pilot: Roddrecus C. (26709)
Aircraft: Unknown
(DA62)
More flights by this aircraft type
Origin: KLAX Los Angeles Intl
United States
Destination: KSNA John Wayne-Orange Co
United States
More flights between these airports :: More routes between these airports
Route: +SLI8 SLI
File this flight plan on PilotEdge
Remarks:
Altitude:
(Current/Filed)
4,000ft
Speed:
(Current/Filed)
140kts
Departed: 02-Dec-19 05:26 PM
Arrived: 02-Dec-19 06:04 PM
Distance/Time
Traveled:
31nm/0:38
Distance/Time
To Go:
Arrived

Flight Plot

Page will automatically refresh every two minutes.

Flight plan parsing failed; only flown route is shown


Map Options




Map Legend


Flown Route
Filed Route
Departure Airport
Arrival Airport
Navaid (VOR, NDB)
Fix

Horizontal Profiles

Position Reports

Time Latitude Longitude Heading Altitude Ground
Speed
02-Dec-19 16:25 33.676081 -117.870908 219 60ft 0kts
02-Dec-19 16:26 33.676081 -117.870908 219 60ft 0kts
02-Dec-19 16:27 33.676081 -117.870908 219 60ft 0kts
02-Dec-19 16:28 33.676081 -117.870908 219 60ft 0kts
02-Dec-19 16:29 33.676081 -117.870908 219 60ft 0kts
02-Dec-19 16:30 33.676081 -117.870908 219 60ft 0kts
02-Dec-19 16:31 33.676081 -117.870908 219 60ft 0kts
02-Dec-19 16:32 33.676081 -117.870908 219 60ft 0kts
02-Dec-19 16:33 33.676081 -117.870908 219 60ft 0kts
02-Dec-19 16:34 33.676081 -117.870908 219 60ft 0kts
02-Dec-19 16:35 33.932479 -118.404778 172 117ft 0kts
02-Dec-19 16:36 33.932479 -118.404778 172 117ft 0kts
02-Dec-19 16:37 33.932479 -118.404778 172 117ft 0kts
02-Dec-19 16:38 33.932479 -118.404778 172 117ft 0kts
02-Dec-19 16:39 33.932479 -118.404778 172 117ft 0kts
02-Dec-19 16:40 33.932479 -118.404778 172 117ft 0kts
02-Dec-19 16:41 33.932479 -118.404778 172 117ft 0kts
02-Dec-19 16:42 33.932479 -118.404778 172 117ft 0kts
02-Dec-19 16:43 33.932479 -118.404778 172 117ft 0kts
02-Dec-19 16:44 33.932479 -118.404778 172 117ft 0kts
02-Dec-19 16:45 33.932479 -118.404778 172 117ft 0kts
02-Dec-19 16:46 33.932479 -118.404778 172 117ft 0kts
02-Dec-19 16:47 33.932479 -118.404778 172 117ft 0kts
02-Dec-19 16:48 33.932479 -118.404778 172 117ft 0kts
02-Dec-19 16:49 33.932479 -118.404778 172 117ft 0kts
02-Dec-19 16:50 33.932479 -118.404778 172 117ft 0kts
02-Dec-19 16:51 33.932479 -118.404778 172 117ft 0kts
02-Dec-19 16:52 33.932479 -118.404778 172 117ft 0kts
02-Dec-19 16:53 33.932479 -118.404778 172 117ft 0kts
02-Dec-19 16:54 33.932479 -118.404778 172 117ft 0kts
02-Dec-19 16:55 33.932479 -118.404778 172 117ft 0kts
02-Dec-19 16:56 33.932479 -118.404778 172 117ft 0kts
02-Dec-19 16:58 33.932479 -118.404778 172 117ft 0kts
02-Dec-19 17:07 33.932479 -118.404778 172 117ft 0kts
02-Dec-19 17:08 33.932479 -118.404778 172 117ft 0kts
02-Dec-19 17:09 33.932479 -118.404778 172 117ft 0kts
02-Dec-19 17:10 33.932479 -118.404778 172 117ft 0kts
02-Dec-19 17:11 33.932479 -118.404778 172 117ft 0kts
02-Dec-19 17:12 33.932479 -118.404778 172 117ft 0kts
02-Dec-19 17:13 33.932479 -118.404778 172 117ft 0kts
02-Dec-19 17:14 33.932479 -118.404778 172 117ft 0kts
02-Dec-19 17:15 33.932479 -118.404778 172 117ft 0kts
02-Dec-19 17:16 33.932479 -118.404778 172 117ft 0kts
02-Dec-19 17:17 33.932479 -118.404778 172 117ft 0kts
02-Dec-19 17:18 33.932479 -118.404778 172 117ft 0kts
02-Dec-19 17:19 33.932730 -118.405107 331 118ft 5kts
02-Dec-19 17:20 33.934152 -118.402021 82 115ft 31kts
02-Dec-19 17:21 33.935176 -118.392023 82 102ft 23kts
02-Dec-19 17:22 33.935807 -118.385863 82 99ft 14kts
02-Dec-19 17:23 33.936501 -118.382835 354 96ft 0kts
02-Dec-19 17:24 33.936501 -118.382835 354 96ft 0kts
02-Dec-19 17:25 33.936945 -118.386992 263 99ft 72kts
02-Dec-19 17:26 33.933397 -118.413882 262 915ft 75kts
02-Dec-19 17:27 33.927638 -118.442075 223 1693ft 117kts
02-Dec-19 17:28 33.896118 -118.464244 212 2525ft 139kts
02-Dec-19 17:29 33.861664 -118.487712 212 3322ft 144kts
02-Dec-19 17:30 33.822714 -118.499081 181 3979ft 159kts
02-Dec-19 17:31 33.776936 -118.497740 181 3978ft 158kts
02-Dec-19 17:32 33.734110 -118.495924 181 3980ft 151kts
02-Dec-19 17:33 33.694381 -118.494206 181 3979ft 133kts
02-Dec-19 17:34 33.687090 -118.457441 71 3984ft 138kts
02-Dec-19 17:35 33.698858 -118.413615 71 3982ft 137kts
02-Dec-19 17:36 33.710369 -118.369943 71 3981ft 137kts
02-Dec-19 17:37 33.721757 -118.326091 71 3981ft 137kts
02-Dec-19 17:38 33.733179 -118.282241 71 3979ft 137kts
02-Dec-19 17:39 33.744890 -118.238657 71 3978ft 137kts
02-Dec-19 17:40 33.756954 -118.195114 71 3976ft 136kts
02-Dec-19 17:41 33.769689 -118.150421 71 3987ft 161kts
02-Dec-19 17:42 33.785342 -118.095115 72 3974ft 181kts
02-Dec-19 17:43 33.801559 -118.037249 72 3970ft 183kts
02-Dec-19 17:44 33.817367 -117.978900 71 3969ft 183kts
02-Dec-19 17:45 33.838217 -117.922748 62 3968ft 184kts
02-Dec-19 17:46 33.860066 -117.866982 67 3967ft 184kts
02-Dec-19 17:47 33.880231 -117.811819 66 3962ft 169kts
02-Dec-19 17:48 33.900183 -117.762600 63 3967ft 161kts
02-Dec-19 17:49 33.920459 -117.714753 59 3967ft 160kts
02-Dec-19 17:50 33.957097 -117.685310 28 3935ft 161kts
02-Dec-19 17:51 33.978880 -117.705711 226 3650ft 148kts
02-Dec-19 17:52 33.938867 -117.702772 196 3459ft 143kts
02-Dec-19 17:53 33.912080 -117.721163 206 3449ft 95kts
02-Dec-19 17:54 33.886686 -117.734691 212 3122ft 106kts
02-Dec-19 17:55 33.860207 -117.752380 208 3239ft 109kts
02-Dec-19 17:56 33.832034 -117.768315 209 3249ft 122kts
02-Dec-19 17:57 33.802131 -117.789357 213 2698ft 120kts
02-Dec-19 17:58 33.774200 -117.807378 210 2106ft 111kts
02-Dec-19 17:59 33.746807 -117.824521 210 1515ft 111kts
02-Dec-19 18:00 33.720967 -117.840641 210 938ft 92kts
02-Dec-19 18:01 33.699480 -117.854505 208 420ft 84kts
02-Dec-19 18:02 33.679114 -117.866584 210 60ft 53kts
02-Dec-19 18:03 33.677885 -117.868938 210 60ft 0kts
02-Dec-19 18:04 33.676097 -117.870070 209 60ft 17kts
02-Dec-19 18:05 33.675701 -117.871298 212 60ft 0kts
02-Dec-19 18:06 33.675701 -117.871298 212 60ft 0kts

Navigation Log

Ident Type
Flight plan parsing failed, navigation log unavailable